createdAt,value
2023-02-24T00:03:45.123Z,9.63
2023-02-24T00:08:47.450Z,9.60
2023-02-24T00:13:49.077Z,9.56
2023-02-24T00:18:51.209Z,9.52
2023-02-24T00:23:53.699Z,9.52
2023-02-24T00:29:03.251Z,9.46
2023-02-24T00:34:06.340Z,9.50
2023-02-24T00:39:10.137Z,9.54
2023-02-24T00:44:14.642Z,9.49
2023-02-24T00:49:19.497Z,9.42
2023-02-24T00:54:21.765Z,9.42
2023-02-24T00:59:24.139Z,9.41
2023-02-24T01:04:29.354Z,9.37
2023-02-24T01:09:32.217Z,9.36
2023-02-24T01:14:35.503Z,9.34
2023-02-24T01:19:37.353Z,9.32
2023-02-24T01:24:41.260Z,9.32
2023-02-24T01:29:43.450Z,9.31
2023-02-24T01:34:46.231Z,9.32
2023-02-24T01:39:48.164Z,9.30
2023-02-24T01:44:51.935Z,9.27
2023-02-24T01:49:54.702Z,9.24
2023-02-24T01:55:21.798Z,9.19
2023-02-24T02:00:37.498Z,9.18
2023-02-24T02:05:40.640Z,9.16
2023-02-24T02:10:44.336Z,9.13
2023-02-24T02:16:09.206Z,9.04
2023-02-24T02:21:36.345Z,8.91
2023-02-24T02:26:47.320Z,8.84
2023-02-24T02:32:17.271Z,8.82
2023-02-24T02:37:19.107Z,8.74
2023-02-24T02:42:30.165Z,8.76
2023-02-24T02:47:41.672Z,8.81
2023-02-24T02:52:53.904Z,8.83
2023-02-24T02:57:59.180Z,8.86
2023-02-24T03:03:10.260Z,8.89
2023-02-24T03:08:15.972Z,8.89
2023-02-24T03:13:23.989Z,8.86
2023-02-24T03:18:32.211Z,8.80
2023-02-24T03:23:52.960Z,8.69
2023-02-24T03:29:18.873Z,8.58
2023-02-24T03:34:38.366Z,8.47
2023-02-24T03:39:41.869Z,8.30
2023-02-24T03:44:58.177Z,8.19
2023-02-24T03:50:00.398Z,8.15
2023-02-24T03:55:17.752Z,8.17
2023-02-24T04:00:29.505Z,8.16
2023-02-24T04:05:39.232Z,8.08
2023-02-24T04:10:52.453Z,7.94
2023-02-24T04:16:12.127Z,8.03
2023-02-24T04:21:15.922Z,8.01
2023-02-24T04:26:18.199Z,8.01
2023-02-24T04:31:23.015Z,8.01
2023-02-24T04:36:25.199Z,8.06
2023-02-24T04:41:27.561Z,8.08
2023-02-24T04:46:32.415Z,8.09
2023-02-24T04:51:34.236Z,8.11
2023-02-24T04:56:37.000Z,8.13
2023-02-24T05:01:39.999Z,8.12
2023-02-24T05:06:44.017Z,8.16
2023-02-24T05:11:51.116Z,8.16
2023-02-24T05:17:00.034Z,8.15
2023-02-24T05:22:07.031Z,8.14
2023-02-24T05:27:09.442Z,8.14
2023-02-24T05:32:11.413Z,8.11
2023-02-24T05:37:16.473Z,8.13
2023-02-24T05:42:19.465Z,8.07
2023-02-24T05:47:23.279Z,8.04
2023-02-24T05:52:25.110Z,7.97
2023-02-24T05:57:32.875Z,7.93
2023-02-24T06:02:37.653Z,7.95
2023-02-24T06:07:39.289Z,7.96
2023-02-24T06:12:40.946Z,7.94
2023-02-24T06:17:43.630Z,7.96
2023-02-24T06:22:45.214Z,7.97
2023-02-24T06:27:53.215Z,7.95
2023-02-24T06:32:56.673Z,7.93
2023-02-24T06:37:58.668Z,7.92
2023-02-24T06:43:00.238Z,7.94
2023-02-24T06:48:03.410Z,7.98
2023-02-24T06:53:09.996Z,8.02
2023-02-24T06:58:17.300Z,8.11
2023-02-24T07:03:19.892Z,8.20
2023-02-24T07:08:27.311Z,8.27
2023-02-24T07:13:30.216Z,8.43
2023-02-24T07:18:31.865Z,8.53
2023-02-24T07:23:33.502Z,8.64
2023-02-24T07:28:35.105Z,8.79
2023-02-24T07:33:37.622Z,8.92
2023-02-24T07:38:39.943Z,9.03
2023-02-24T07:43:43.945Z,9.18
2023-02-24T07:48:50.540Z,9.21
2023-02-24T07:53:54.639Z,9.37
2023-02-24T07:59:11.036Z,9.60
2023-02-24T08:04:15.899Z,9.87
2023-02-24T08:09:42.742Z,10.12
2023-02-24T08:14:50.638Z,10.38
2023-02-24T08:20:12.851Z,10.68
2023-02-24T08:25:19.074Z,11.03
2023-02-24T08:30:23.796Z,11.32
2023-02-24T08:35:35.862Z,11.51
2023-02-24T08:40:49.968Z,11.67
2023-02-24T08:46:18.126Z,11.78
2023-02-24T08:51:28.635Z,11.91
2023-02-24T08:56:34.567Z,12.09
2023-02-24T09:01:39.058Z,12.33
2023-02-24T09:07:10.843Z,12.63
2023-02-24T09:12:22.054Z,12.96
2023-02-24T09:17:50.010Z,13.21
2023-02-24T09:23:07.733Z,13.41
2023-02-24T09:28:19.922Z,13.47
2023-02-24T09:33:38.976Z,13.57
2023-02-24T09:39:02.122Z,13.74
2023-02-24T09:44:19.704Z,13.95
2023-02-24T09:49:40.022Z,14.11
2023-02-24T09:54:51.001Z,14.31
2023-02-24T10:00:22.311Z,14.41
2023-02-24T10:05:47.942Z,14.52
2023-02-24T10:11:07.113Z,14.66
2023-02-24T10:16:14.416Z,14.68
2023-02-24T10:21:49.556Z,14.62
2023-02-24T10:27:00.777Z,14.61
2023-02-24T10:32:37.080Z,14.67
2023-02-24T10:37:38.727Z,14.79
2023-02-24T10:42:48.863Z,14.92
2023-02-24T10:47:56.658Z,15.00
2023-02-24T10:53:26.080Z,15.06
2023-02-24T10:58:38.054Z,15.21
2023-02-24T11:04:00.773Z,15.23
2023-02-24T11:09:19.285Z,15.48
2023-02-24T11:14:39.529Z,15.60
2023-02-24T11:19:49.018Z,15.94
2023-02-24T11:24:51.913Z,16.16
2023-02-24T11:30:14.973Z,16.17
2023-02-24T11:35:33.588Z,16.02
2023-02-24T11:40:43.714Z,16.08
2023-02-24T11:45:58.226Z,16.25
2023-02-24T11:51:03.844Z,16.33
2023-02-24T11:56:14.214Z,16.31
2023-02-24T12:01:42.384Z,16.42
2023-02-24T12:06:57.511Z,16.42
2023-02-24T12:12:22.315Z,16.46
2023-02-24T12:17:34.732Z,16.38
2023-02-24T12:22:53.101Z,16.27
2023-02-24T12:28:04.585Z,16.21
2023-02-24T12:33:42.839Z,16.18
2023-02-24T12:38:56.836Z,16.25
2023-02-24T12:44:26.396Z,16.45
2023-02-24T12:49:43.271Z,16.55
2023-02-24T12:54:50.788Z,16.62
2023-02-24T12:59:53.024Z,16.55
2023-02-24T13:05:10.412Z,16.50
2023-02-24T13:10:21.011Z,16.52
2023-02-24T13:15:26.228Z,16.45
2023-02-24T13:20:32.547Z,16.29
2023-02-24T13:25:39.609Z,16.27
2023-02-24T13:30:44.473Z,16.19
2023-02-24T13:35:49.122Z,16.13
2023-02-24T13:40:51.172Z,15.90
2023-02-24T13:46:00.279Z,15.79
2023-02-24T13:51:13.770Z,15.81
2023-02-24T13:56:27.869Z,15.82
2023-02-24T14:01:32.121Z,15.82
2023-02-24T14:06:34.251Z,15.83
2023-02-24T14:11:37.637Z,15.71
2023-02-24T14:16:40.328Z,15.65
2023-02-24T14:21:57.447Z,15.68
2023-02-24T14:27:01.028Z,15.65
2023-02-24T14:32:02.836Z,15.52
2023-02-24T14:37:08.044Z,15.45
2023-02-24T14:42:14.005Z,15.42
2023-02-24T14:47:17.912Z,15.41
2023-02-24T14:52:26.551Z,15.47
2023-02-24T14:57:33.484Z,15.43
2023-02-24T15:02:35.296Z,15.31
2023-02-24T15:07:38.206Z,15.27
2023-02-24T15:13:14.179Z,15.31
2023-02-24T15:18:28.174Z,15.24
2023-02-24T15:23:36.115Z,15.16
2023-02-24T15:28:38.161Z,15.15
2023-02-24T15:33:43.148Z,15.03
2023-02-24T15:38:45.490Z,14.96
2023-02-24T15:43:53.124Z,14.88
2023-02-24T15:48:57.405Z,14.77
2023-02-24T15:54:01.694Z,14.71
2023-02-24T15:59:03.454Z,14.65
2023-02-24T16:04:05.593Z,14.56
2023-02-24T16:09:17.722Z,14.47
2023-02-24T16:14:19.403Z,14.36
2023-02-24T16:19:21.029Z,14.23
2023-02-24T16:24:22.641Z,14.15
2023-02-24T16:29:24.246Z,14.06
2023-02-24T16:34:26.026Z,13.93
2023-02-24T16:39:27.891Z,13.81
2023-02-24T16:44:29.481Z,13.72
2023-02-24T16:49:31.125Z,13.60
2023-02-24T16:54:32.776Z,13.47
2023-02-24T16:59:34.353Z,13.30
2023-02-24T17:04:35.939Z,13.18
2023-02-24T17:09:38.778Z,13.16
2023-02-24T17:14:41.177Z,13.06
2023-02-24T17:19:42.808Z,13.02
2023-02-24T17:24:44.430Z,12.94
2023-02-24T17:29:46.088Z,12.89
2023-02-24T17:34:47.820Z,12.83
2023-02-24T17:39:49.421Z,12.73
2023-02-24T17:44:51.100Z,12.68
2023-02-24T17:49:53.230Z,12.61
2023-02-24T17:54:55.681Z,12.47
2023-02-24T17:59:57.357Z,12.38
2023-02-24T18:04:59.244Z,12.31
2023-02-24T18:10:00.851Z,12.33
2023-02-24T18:15:08.706Z,12.34
2023-02-24T18:20:12.226Z,12.22
2023-02-24T18:25:14.068Z,12.15
2023-02-24T18:30:17.832Z,12.18
2023-02-24T18:35:21.937Z,12.20
2023-02-24T18:40:28.083Z,12.16
2023-02-24T18:45:31.282Z,12.08
2023-02-24T18:50:33.077Z,11.99
2023-02-24T18:55:35.871Z,11.80
2023-02-24T19:00:37.866Z,11.85
2023-02-24T19:05:39.544Z,11.87
2023-02-24T19:10:43.627Z,11.85
2023-02-24T19:15:45.469Z,11.80
2023-02-24T19:20:47.085Z,11.82
2023-02-24T19:25:48.693Z,11.79
2023-02-24T19:30:50.451Z,11.86
2023-02-24T19:35:53.488Z,11.81
2023-02-24T19:40:58.512Z,11.81
2023-02-24T19:46:06.210Z,11.81
2023-02-24T19:51:13.768Z,11.82
2023-02-24T19:56:15.480Z,11.84
2023-02-24T20:01:17.164Z,11.95
2023-02-24T20:06:25.710Z,11.97
2023-02-24T20:11:29.751Z,11.98
2023-02-24T20:16:36.842Z,11.94
2023-02-24T20:21:39.361Z,11.93
2023-02-24T20:26:43.389Z,11.89
2023-02-24T20:31:46.895Z,11.89
2023-02-24T20:36:48.629Z,11.79
2023-02-24T20:41:54.625Z,11.69
2023-02-24T20:46:56.432Z,11.56
2023-02-24T20:51:58.060Z,11.50
2023-02-24T20:56:59.653Z,11.36
2023-02-24T21:02:01.275Z,11.27
2023-02-24T21:07:02.862Z,11.13
2023-02-24T21:12:04.881Z,10.98
2023-02-24T21:17:08.216Z,10.89
2023-02-24T21:22:10.049Z,10.84
2023-02-24T21:27:11.622Z,10.66
2023-02-24T21:32:14.561Z,10.73
2023-02-24T21:37:16.330Z,10.68
2023-02-24T21:42:18.631Z,10.61
2023-02-24T21:47:20.714Z,10.65
2023-02-24T21:52:22.494Z,10.61
2023-02-24T21:57:24.474Z,10.63
2023-02-24T22:02:26.875Z,10.62
2023-02-24T22:07:28.607Z,10.54
2023-02-24T22:12:30.555Z,10.63
2023-02-24T22:17:33.803Z,10.64
2023-02-24T22:22:41.333Z,10.54
2023-02-24T22:27:43.020Z,10.61
2023-02-24T22:32:44.694Z,10.61
2023-02-24T22:37:46.496Z,10.57
2023-02-24T22:42:48.124Z,10.57
2023-02-24T22:47:49.919Z,10.64
2023-02-24T22:52:51.993Z,10.67
2023-02-24T22:57:53.576Z,10.69
2023-02-24T23:02:56.420Z,10.65
2023-02-24T23:07:58.145Z,10.64
2023-02-24T23:12:59.743Z,10.65
2023-02-24T23:18:02.547Z,10.63
2023-02-24T23:23:04.170Z,10.57
2023-02-24T23:28:06.468Z,10.60
2023-02-24T23:33:08.569Z,10.56
2023-02-24T23:38:11.161Z,10.48
2023-02-24T23:43:13.849Z,10.48
2023-02-24T23:48:15.687Z,10.48
2023-02-24T23:53:17.265Z,10.53
2023-02-24T23:58:18.896Z,10.52
